Terminal Aerodrome Forecast
Issued by NWS Binghamton, NY

Home | Current Version | Previous Version | Text Only | Print | Product List | Glossary On
Versions: 1 2 3 4 5 6 7 8 9 10 11 12 13 14 15 16 17 18 19 20 21 22 23 24
000
FTUS41 KBGM 221700
TAFBGM
TAF
KBGM 221740Z 2218/2318 14003KT P6SM BKN025
      TEMPO 2218/2222 3SM SHRA BR OVC018
     FM230200 13005KT 3SM BR FEW009 BKN015
      TEMPO 2305/2309 2SM BR OVC009
     FM230900 13005KT 1SM BR OVC007
     FM231400 13007KT P6SM OVC015=

USA.gov is the U.S. government's official web portal to all federal, state and local government web resources and services.